Margate, Florida
Current Conditions -  °F | °C
As of 9:53 PM on Sunday 23 Nov 2014 (Local Time) from KFXE Reporting Station
Clear Clear  
Wind Chill: 79°   Ceiling: Unl
Heat Index: 82°   Visibility: 10mi
Dew Point: 73°   Wind: 7mph
Humidity: 82%   Direction: 150°SSE
Pressure: 29.97"   Gusts: NA
Location:  26.24°N, 80.2°W
Report Text: KFXE 240253Z 15006KT 10SM CLR 26/23 A2997 RMK AO2 SLP149 T02610228 51008 $
Loading
Personal Weather Stations






























Interactive Weather Map New forecast layout! Learn more

10-Day Weather Forecast

Advertisements
Track Severe Weather on mobile